^^
Saratoga-Weather Station Historical Data
Daily Summary for July 16, 2021 Units:  Metric    English   Both
Daily Weekly Monthly Yearly Custom
  High: Low: Average:
Temperature: 9.7 °C 5 °C 7.1 °C
Dew Point: 7.9 °C 4.1 °C 6.1 °C
Humidity: 96% 86% 94%
Wind Speed: 4.7km/h 0km/h 0.3km/h
Wind Gust: 6.4km/h - -
Wind- - SSE
Pressure: 1037.6 hPa 1034.2 hPa -
Precipitation: 0.0 mm    
Historical Graphs
 
 
Tabular Data for July 16, 2021
Time Temperature Dew Point Pressure Wind Wind Speed Wind Gust Humidity Rainfall Rate (Hourly) solar
00:03 6.6 °C 5.9 °C 1034.2 hPa Calm     95% 0.0 mm 0 W/m2
00:08 6.6 °C 5.9 °C 1034.2 hPa Calm     95% 0.0 mm 0 W/m2
00:13 6.6 °C 5.9 °C 1034.2 hPa Calm     95% 0.0 mm 0 W/m2
00:18 6.6 °C 5.9 °C 1034.2 hPa Calm     95% 0.0 mm 0 W/m2
00:23 6.6 °C 5.9 °C 1034.2 hPa Calm     95% 0.0 mm 0 W/m2
00:28 6.6 °C 5.9 °C 1034.5 hPa Calm     95% 0.0 mm 0 W/m2
00:33 6.6 °C 5.9 °C 1034.2 hPa Calm     95% 0.0 mm 0 W/m2
00:38 6.6 °C 6 °C 1034.2 hPa NW 3.2 km/h 3.2 km/h 96% 0.0 mm 0 W/m2
00:43 6.6 °C 6 °C 1034.2 hPa NW 1.4 km/h 3.2 km/h 96% 0.0 mm 0 W/m2
00:48 6.6 °C 6 °C 1034.2 hPa Calm   3.2 km/h 96% 0.0 mm 0 W/m2
00:53 6.7 °C 6.1 °C 1034.2 hPa WNW 1.4 km/h 3.2 km/h 96% 0.0 mm 0 W/m2
00:58 6.7 °C 6.1 °C 1034.2 hPa WNW 1.4 km/h 1.6 km/h 96% 0.0 mm 0 W/m2
01:03 6.7 °C 6.1 °C 1034.2 hPa WNW 4.7 km/h 4.8 km/h 96% 0.0 mm 0 W/m2
01:08 6.7 °C 6.1 °C 1034.2 hPa NW 1.4 km/h 3.2 km/h 96% 0.0 mm 0 W/m2
01:13 6.7 °C 6.1 °C 1034.2 hPa Calm   3.2 km/h 96% 0.0 mm 0 W/m2
01:18 6.8 °C 6.2 °C 1034.2 hPa Calm     96% 0.0 mm 0 W/m2
01:23 6.8 °C 6.1 °C 1034.2 hPa Calm     95% 0.0 mm 0 W/m2
01:28 6.7 °C 6 °C 1034.2 hPa Calm     95% 0.0 mm 0 W/m2
01:33 6.7 °C 6 °C 1034.2 hPa Calm     95% 0.0 mm 0 W/m2
01:38 6.7 °C 6 °C 1034.2 hPa Calm     95% 0.0 mm 0 W/m2
01:43 6.7 °C 6 °C 1034.2 hPa Calm     95% 0.0 mm 0 W/m2
01:48 6.7 °C 6 °C 1034.2 hPa Calm     95% 0.0 mm 0 W/m2
01:53 6.6 °C 5.9 °C 1034.2 hPa Calm     95% 0.0 mm 0 W/m2
01:58 6.6 °C 5.9 °C 1034.2 hPa Calm     95% 0.0 mm 0 W/m2
02:03 6.6 °C 5.9 °C 1034.2 hPa Calm     95% 0.0 mm 0 W/m2
02:08 6.6 °C 5.9 °C 1034.2 hPa Calm     95% 0.0 mm 0 W/m2
02:13 6.6 °C 5.9 °C 1034.2 hPa Calm     95% 0.0 mm 0 W/m2
02:18 6.6 °C 5.9 °C 1034.2 hPa Calm     95% 0.0 mm 0 W/m2
02:23 6.6 °C 5.9 °C 1034.2 hPa Calm     95% 0.0 mm 0 W/m2
02:28 6.6 °C 5.9 °C 1034.2 hPa Calm     95% 0.0 mm 0 W/m2
02:48 6.6 °C 5.9 °C 1034.5 hPa Calm     95% 0.0 mm 0 W/m2
02:53 6.6 °C 5.9 °C 1034.5 hPa Calm     95% 0.0 mm 0 W/m2
02:58 6.6 °C 5.9 °C 1034.5 hPa Calm     95% 0.0 mm 0 W/m2
03:03 6.6 °C 6 °C 1034.5 hPa Calm   1.6 km/h 96% 0.0 mm 0 W/m2
03:08 6.5 °C 5.9 °C 1034.5 hPa NE 1.4 km/h 3.2 km/h 96% 0.0 mm 0 W/m2
03:13 6.4 °C 5.8 °C 1034.5 hPa Calm   1.6 km/h 96% 0.0 mm 0 W/m2
03:18 6.4 °C 5.8 °C 1034.5 hPa Calm     96% 0.0 mm 0 W/m2
03:23 6.4 °C 5.8 °C 1034.5 hPa Calm     96% 0.0 mm 0 W/m2
03:28 6.4 °C 5.8 °C 1034.5 hPa Calm     96% 0.0 mm 0 W/m2
03:33 6.3 °C 5.7 °C 1034.5 hPa Calm     96% 0.0 mm 0 W/m2
03:38 6.3 °C 5.7 °C 1034.5 hPa NE 1.6 km/h 1.6 km/h 96% 0.0 mm 0 W/m2
03:43 6.3 °C 5.6 °C 1034.2 hPa Calm     95% 0.0 mm 0 W/m2
03:48 6.3 °C 5.6 °C 1034.2 hPa Calm     95% 0.0 mm 0 W/m2
03:53 6.3 °C 5.6 °C 1034.2 hPa Calm     95% 0.0 mm 0 W/m2
03:58 6.3 °C 5.6 °C 1034.2 hPa Calm     95% 0.0 mm 0 W/m2
04:03 6.3 °C 5.6 °C 1034.5 hPa Calm     95% 0.0 mm 0 W/m2
04:08 6.3 °C 5.6 °C 1034.2 hPa Calm     95% 0.0 mm 0 W/m2
04:13 6.3 °C 5.7 °C 1034.5 hPa Calm     96% 0.0 mm 0 W/m2
04:18 6.3 °C 5.7 °C 1034.2 hPa Calm     96% 0.0 mm 0 W/m2
04:23 6.3 °C 5.7 °C 1034.2 hPa Calm   1.6 km/h 96% 0.0 mm 0 W/m2
04:28 6.3 °C 5.7 °C 1034.5 hPa Calm     96% 0.0 mm 0 W/m2
04:33 6.3 °C 5.7 °C 1034.2 hPa Calm   1.6 km/h 96% 0.0 mm 0 W/m2
04:38 6.3 °C 5.7 °C 1034.2 hPa Calm   1.6 km/h 96% 0.0 mm 0 W/m2
04:43 6.3 °C 5.7 °C 1034.5 hPa Calm     96% 0.0 mm 0 W/m2
04:48 6.3 °C 5.7 °C 1034.5 hPa Calm   1.6 km/h 96% 0.0 mm 0 W/m2
04:53 6.3 °C 5.7 °C 1034.5 hPa North 3.2 km/h 3.2 km/h 96% 0.0 mm 0 W/m2
04:58 6.3 °C 5.7 °C 1034.5 hPa Calm     96% 0.0 mm 0 W/m2
05:03 6.3 °C 5.7 °C 1034.5 hPa Calm     96% 0.0 mm 0 W/m2
05:08 6.3 °C 5.7 °C 1034.5 hPa Calm     96% 0.0 mm 0 W/m2
05:13 6.3 °C 5.7 °C 1034.5 hPa Calm     96% 0.0 mm 0 W/m2
05:18 6.3 °C 5.7 °C 1034.5 hPa Calm     96% 0.0 mm 0 W/m2
05:23 6.3 °C 5.7 °C 1034.5 hPa Calm     96% 0.0 mm 0 W/m2
05:28 6.3 °C 5.7 °C 1034.5 hPa Calm     96% 0.0 mm 0 W/m2
05:33 6.3 °C 5.7 °C 1034.5 hPa NE 1.4 km/h 3.2 km/h 96% 0.0 mm 0 W/m2
05:50 6.3 °C 5.7 °C 1034.5 hPa NNW 3.2 km/h 3.2 km/h 96% 0.0 mm 0 W/m2
05:55 6.4 °C 5.8 °C 1034.5 hPa Calm   1.6 km/h 96% 0.0 mm 0 W/m2
06:00 6.4 °C 5.8 °C 1034.5 hPa Calm     96% 0.0 mm 0 W/m2
06:05 6.4 °C 5.8 °C 1034.9 hPa Calm     96% 0.0 mm 0 W/m2
06:10 6.4 °C 5.8 °C 1034.5 hPa Calm   1.6 km/h 96% 0.0 mm 0 W/m2
06:16 6.4 °C 5.8 °C 1034.5 hPa Calm     96% 0.0 mm 0 W/m2
06:21 6.4 °C 5.8 °C 1034.9 hPa Calm     96% 0.0 mm 0 W/m2
06:26 6.4 °C 5.8 °C 1034.9 hPa NNW 1.4 km/h 3.2 km/h 96% 0.0 mm 0 W/m2
06:31 6.4 °C 5.8 °C 1034.9 hPa Calm   3.2 km/h 96% 0.0 mm 0 W/m2
06:36 6.4 °C 5.8 °C 1034.9 hPa Calm     96% 0.0 mm 0 W/m2
06:41 6.4 °C 5.8 °C 1034.9 hPa Calm   1.6 km/h 96% 0.0 mm 0 W/m2
06:46 6.4 °C 5.8 °C 1035.2 hPa North 3.2 km/h 4.8 km/h 96% 0.0 mm 0 W/m2
06:51 6.4 °C 5.8 °C 1035.2 hPa Calm     96% 0.0 mm 0 W/m2
06:56 6.5 °C 5.9 °C 1035.2 hPa Calm     96% 0.0 mm 0 W/m2
07:01 6.5 °C 5.9 °C 1035.2 hPa Calm     96% 0.0 mm 0 W/m2
07:06 6.5 °C 5.9 °C 1035.2 hPa Calm     96% 0.0 mm 0 W/m2
07:11 6.5 °C 5.9 °C 1035.2 hPa Calm     96% 0.0 mm 0 W/m2
07:16 6.5 °C 5.9 °C 1035.2 hPa Calm     96% 0.0 mm 0 W/m2
07:21 6.5 °C 5.9 °C 1035.2 hPa NE 1.4 km/h 4.8 km/h 96% 0.0 mm 0 W/m2
07:26 6.5 °C 5.9 °C 1035.2 hPa Calm     96% 0.0 mm 0 W/m2
07:31 6.5 °C 5.9 °C 1035.2 hPa Calm   4.8 km/h 96% 0.0 mm 0 W/m2
07:36 6.6 °C 6 °C 1035.2 hPa Calm     96% 0.0 mm 0 W/m2
07:41 6.6 °C 6 °C 1035.2 hPa Calm   1.6 km/h 96% 0.0 mm 0 W/m2
07:46 6.6 °C 6 °C 1035.2 hPa Calm     96% 0.0 mm 0 W/m2
07:56 6.6 °C 6 °C 1034.9 hPa Calm     96% 0.0 mm 0 W/m2
08:01 6.6 °C 6 °C 1035.2 hPa NNW 1.4 km/h 3.2 km/h 96% 0.0 mm 0 W/m2
08:06 6.6 °C 6 °C 1035.2 hPa NNW 1.4 km/h 3.2 km/h 96% 0.0 mm 0 W/m2
08:11 6.6 °C 6 °C 1035.2 hPa Calm     96% 0.0 mm 0 W/m2
08:16 6.6 °C 6 °C 1035.2 hPa Calm     96% 0.0 mm 0 W/m2
08:21 6.6 °C 6 °C 1035.2 hPa Calm     96% 0.0 mm 0 W/m2
08:26 6.6 °C 6 °C 1035.2 hPa NNW 1.4 km/h 3.2 km/h 96% 0.0 mm 0 W/m2
08:31 6.6 °C 6 °C 1035.6 hPa Calm   3.2 km/h 96% 0.0 mm 0 W/m2
08:36 6.6 °C 6 °C 1035.6 hPa Calm     96% 0.0 mm 0 W/m2
08:41 6.5 °C 5.9 °C 1035.6 hPa Calm   1.6 km/h 96% 0.0 mm 0 W/m2
08:46 6.5 °C 5.9 °C 1035.6 hPa Calm     96% 0.0 mm 5 W/m2
08:51 6.5 °C 5.9 °C 1035.9 hPa Calm   3.2 km/h 96% 0.0 mm 5 W/m2
08:56 6.5 °C 5.9 °C 1035.9 hPa Calm     96% 0.0 mm 7 W/m2
09:01 6.4 °C 5.8 °C 1035.9 hPa Calm   3.2 km/h 96% 0.0 mm 7 W/m2
09:06 6.4 °C 5.8 °C 1036.2 hPa Calm     96% 0.0 mm 9 W/m2
09:11 6.4 °C 5.8 °C 1035.9 hPa Calm     96% 0.0 mm 11 W/m2
09:16 6.4 °C 5.8 °C 1036.2 hPa Calm     96% 0.0 mm 11 W/m2
09:21 6.4 °C 5.8 °C 1036.2 hPa Calm     96% 0.0 mm 12 W/m2
09:26 6.4 °C 5.8 °C 1036.2 hPa Calm     96% 0.0 mm 12 W/m2
09:31 6.5 °C 5.9 °C 1036.2 hPa Calm     96% 0.0 mm 14 W/m2
09:36 6.5 °C 5.9 °C 1036.2 hPa Calm     96% 0.0 mm 16 W/m2
09:41 6.5 °C 5.9 °C 1036.2 hPa Calm     96% 0.0 mm 19 W/m2
09:46 6.5 °C 5.9 °C 1036.2 hPa Calm     96% 0.0 mm 19 W/m2
09:51 6.5 °C 5.9 °C 1036.2 hPa Calm     96% 0.0 mm 23 W/m2
09:56 6.6 °C 6 °C 1036.2 hPa Calm     96% 0.0 mm 28 W/m2
10:01 6.6 °C 6 °C 1036.2 hPa Calm     96% 0.0 mm 37 W/m2
10:06 6.7 °C 6.1 °C 1036.2 hPa Calm     96% 0.0 mm 39 W/m2
10:11 6.7 °C 6.1 °C 1036.6 hPa Calm     96% 0.0 mm 37 W/m2
10:16 6.7 °C 6.1 °C 1036.2 hPa Calm     96% 0.0 mm 44 W/m2
10:21 6.8 °C 6.2 °C 1036.6 hPa Calm     96% 0.0 mm 44 W/m2
10:26 6.8 °C 6.2 °C 1036.6 hPa Calm     96% 0.0 mm 51 W/m2
10:31 6.9 °C 6.3 °C 1036.6 hPa Calm     96% 0.0 mm 54 W/m2
10:36 6.9 °C 6.3 °C 1036.9 hPa Calm   1.6 km/h 96% 0.0 mm 54 W/m2
10:41 7 °C 6.4 °C 1036.9 hPa Calm     96% 0.0 mm 54 W/m2
10:46 7.1 °C 6.5 °C 1036.9 hPa Calm     96% 0.0 mm 58 W/m2
10:51 7.2 °C 6.6 °C 1036.9 hPa Calm     96% 0.0 mm 69 W/m2
10:56 7.2 °C 6.6 °C 1036.9 hPa Calm   3.2 km/h 96% 0.0 mm 63 W/m2
11:01 7.3 °C 6.7 °C 1036.9 hPa Calm     96% 0.0 mm 72 W/m2
11:06 7.3 °C 6.7 °C 1036.9 hPa Calm     96% 0.0 mm 77 W/m2
11:11 7.4 °C 6.8 °C 1036.9 hPa Calm     96% 0.0 mm 83 W/m2
11:17 7.4 °C 6.8 °C 1036.9 hPa Calm     96% 0.0 mm 77 W/m2
11:22 7.6 °C 7 °C 1036.9 hPa Calm     96% 0.0 mm 76 W/m2
11:27 7.6 °C 6.9 °C 1036.9 hPa Calm     95% 0.0 mm 76 W/m2
11:32 7.7 °C 6.9 °C 1036.9 hPa ENE 1.4 km/h 1.6 km/h 95% 0.0 mm 70 W/m2
11:37 7.8 °C 7 °C 1036.9 hPa Calm     95% 0.0 mm 74 W/m2
11:42 7.8 °C 7 °C 1036.9 hPa NE 3.2 km/h 3.2 km/h 95% 0.0 mm 74 W/m2
11:47 7.9 °C 7.1 °C 1036.9 hPa Calm     95% 0.0 mm 84 W/m2
11:52 8 °C 7.2 °C 1036.9 hPa North 1.4 km/h 1.6 km/h 95% 0.0 mm 91 W/m2
11:57 8.1 °C 7.3 °C 1036.9 hPa Calm     95% 0.0 mm 95 W/m2
12:02 8.2 °C 7.3 °C 1036.9 hPa Calm     94% 0.0 mm 98 W/m2
12:07 8.3 °C 7.4 °C 1036.9 hPa Calm   3.2 km/h 94% 0.0 mm 90 W/m2
12:12 8.4 °C 7.5 °C 1036.9 hPa Calm     94% 0.0 mm 88 W/m2
12:17 8.4 °C 7.5 °C 1036.9 hPa Calm     94% 0.0 mm 95 W/m2
12:22 8.6 °C 7.5 °C 1036.6 hPa Calm   3.2 km/h 93% 0.0 mm 104 W/m2
12:27 8.6 °C 7.5 °C 1036.6 hPa Calm     93% 0.0 mm 111 W/m2
12:32 8.7 °C 7.6 °C 1036.6 hPa Calm   1.6 km/h 93% 0.0 mm 120 W/m2
12:37 8.8 °C 7.6 °C 1036.6 hPa East 1.4 km/h 3.2 km/h 92% 0.0 mm 135 W/m2
12:42 8.8 °C 7.6 °C 1036.6 hPa Calm   1.6 km/h 92% 0.0 mm 134 W/m2
12:47 8.9 °C 7.7 °C 1036.6 hPa Calm   1.6 km/h 92% 0.0 mm 134 W/m2
12:52 8.9 °C 7.7 °C 1036.6 hPa Calm   6.4 km/h 92% 0.0 mm 132 W/m2
12:57 9 °C 7.8 °C 1036.6 hPa Calm     92% 0.0 mm 121 W/m2
13:02 9.1 °C 7.7 °C 1036.6 hPa East 1.4 km/h 6.4 km/h 91% 0.0 mm 116 W/m2
13:07 9.2 °C 7.8 °C 1036.6 hPa ENE 1.4 km/h 4.8 km/h 91% 0.0 mm 114 W/m2
13:12 9.2 °C 7.8 °C 1036.6 hPa ESE 1.4 km/h 3.2 km/h 91% 0.0 mm 121 W/m2
13:17 9.3 °C 7.7 °C 1036.6 hPa Calm   4.8 km/h 90% 0.0 mm 123 W/m2
13:22 9.3 °C 7.7 °C 1036.6 hPa ENE 1.4 km/h 1.6 km/h 90% 0.0 mm 113 W/m2
13:27 9.4 °C 7.8 °C 1036.6 hPa NW 1.4 km/h 3.2 km/h 90% 0.0 mm 105 W/m2
13:32 9.4 °C 7.7 °C 1036.6 hPa Calm   3.2 km/h 89% 0.0 mm 109 W/m2
13:37 9.5 °C 7.8 °C 1036.2 hPa Calm   3.2 km/h 89% 0.0 mm 100 W/m2
13:42 9.5 °C 7.8 °C 1036.2 hPa Calm     89% 0.0 mm 109 W/m2
13:47 9.6 °C 7.9 °C 1036.2 hPa Calm   4.8 km/h 89% 0.0 mm 102 W/m2
13:52 9.6 °C 7.7 °C 1036.2 hPa NNE 3.2 km/h 3.2 km/h 88% 0.0 mm 81 W/m2
13:57 9.6 °C 7.7 °C 1036.2 hPa Calm   4.8 km/h 88% 0.0 mm 84 W/m2
14:02 9.7 °C 7.8 °C 1036.2 hPa East 1.4 km/h 4.8 km/h 88% 0.0 mm 79 W/m2
14:07 9.6 °C 7.5 °C 1036.2 hPa Calm   3.2 km/h 87% 0.0 mm 67 W/m2
14:12 9.6 °C 7.5 °C 1036.2 hPa ENE 3.2 km/h 3.2 km/h 87% 0.0 mm 53 W/m2
14:17 9.6 °C 7.4 °C 1036.2 hPa SE 1.4 km/h 3.2 km/h 86% 0.0 mm 56 W/m2
14:22 9.6 °C 7.4 °C 1036.2 hPa ENE 1.4 km/h 3.2 km/h 86% 0.0 mm 67 W/m2
14:27 9.6 °C 7.5 °C 1036.6 hPa Calm   4.8 km/h 87% 0.0 mm 84 W/m2
14:32 9.6 °C 7.5 °C 1036.2 hPa Calm   3.2 km/h 87% 0.0 mm 70 W/m2
14:37 9.7 °C 7.5 °C 1036.2 hPa Calm   4.8 km/h 86% 0.0 mm 76 W/m2
14:42 9.7 °C 7.5 °C 1036.2 hPa NE 1.4 km/h 1.6 km/h 86% 0.0 mm 70 W/m2
14:47 9.7 °C 7.6 °C 1036.2 hPa Calm   3.2 km/h 87% 0.0 mm 49 W/m2
14:52 9.6 °C 7.5 °C 1036.2 hPa East 3.2 km/h 4.8 km/h 87% 0.0 mm 30 W/m2
14:57 9.6 °C 7.5 °C 1036.2 hPa Calm     87% 0.0 mm 28 W/m2
15:02 9.4 °C 7.3 °C 1036.2 hPa East 1.4 km/h 4.8 km/h 87% 0.0 mm 28 W/m2
15:07 9.3 °C 7.4 °C 1036.2 hPa Calm     88% 0.0 mm 26 W/m2
15:12 9.3 °C 7.4 °C 1036.2 hPa Calm     88% 0.0 mm 25 W/m2
15:17 9.2 °C 7.3 °C 1036.2 hPa Calm     88% 0.0 mm 25 W/m2
15:22 9 °C 7.1 °C 1036.2 hPa Calm     88% 0.0 mm 23 W/m2
15:27 8.9 °C 7 °C 1036.2 hPa East 1.4 km/h 1.6 km/h 88% 0.0 mm 23 W/m2
15:32 8.8 °C 7.1 °C 1036.2 hPa Calm   1.6 km/h 89% 0.0 mm 21 W/m2
15:37 8.8 °C 7.1 °C 1036.2 hPa Calm     89% 0.0 mm 21 W/m2
15:42 8.7 °C 7 °C 1036.2 hPa Calm     89% 0.0 mm 19 W/m2
15:48 8.6 °C 6.9 °C 1036.2 hPa Calm     89% 0.0 mm 19 W/m2
15:53 8.4 °C 6.7 °C 1036.2 hPa Calm   4.8 km/h 89% 0.0 mm 18 W/m2
15:58 8.4 °C 6.5 °C 1036.2 hPa Calm     88% 0.0 mm 18 W/m2
16:03 8.3 °C 6.4 °C 1036.2 hPa ENE 1.4 km/h 4.8 km/h 88% 0.0 mm 16 W/m2
16:08 8.3 °C 6.4 °C 1036.6 hPa Calm     88% 0.0 mm 14 W/m2
16:13 8.3 °C 6.4 °C 1036.6 hPa Calm   3.2 km/h 88% 0.0 mm 14 W/m2
16:18 8.2 °C 6.2 °C 1036.6 hPa Calm     87% 0.0 mm 14 W/m2
16:23 8.2 °C 6.3 °C 1036.6 hPa Calm   3.2 km/h 88% 0.0 mm 14 W/m2
16:28 8.1 °C 6.1 °C 1036.6 hPa Calm     87% 0.0 mm 9 W/m2
16:33 8 °C 6.1 °C 1036.6 hPa Calm     88% 0.0 mm 5 W/m2
16:38 7.9 °C 6 °C 1036.2 hPa Calm     88% 0.0 mm 5 W/m2
16:43 7.8 °C 5.9 °C 1036.2 hPa Calm     88% 0.0 mm 0 W/m2
16:48 7.7 °C 5.8 °C 1036.6 hPa Calm     88% 0.0 mm 0 W/m2
16:53 7.6 °C 5.7 °C 1036.6 hPa Calm     88% 0.0 mm 0 W/m2
16:58 7.5 °C 5.8 °C 1036.6 hPa Calm     89% 0.0 mm 0 W/m2
17:03 7.3 °C 5.6 °C 1036.6 hPa Calm     89% 0.0 mm 0 W/m2
17:08 7.2 °C 5.5 °C 1036.6 hPa Calm     89% 0.0 mm 0 W/m2
17:13 7.1 °C 5.6 °C 1036.6 hPa Calm     90% 0.0 mm 0 W/m2
17:18 6.9 °C 5.4 °C 1036.9 hPa Calm     90% 0.0 mm 0 W/m2
17:23 6.8 °C 5.3 °C 1036.9 hPa Calm     90% 0.0 mm 0 W/m2
17:28 6.7 °C 5.2 °C 1036.9 hPa Calm     90% 0.0 mm 0 W/m2
17:33 6.6 °C 5.2 °C 1036.9 hPa Calm     91% 0.0 mm 0 W/m2
17:38 6.5 °C 5.1 °C 1036.9 hPa Calm     91% 0.0 mm 0 W/m2
17:43 6.4 °C 5 °C 1036.9 hPa Calm     91% 0.0 mm 0 W/m2
17:48 6.3 °C 4.9 °C 1037.2 hPa Calm     91% 0.0 mm 0 W/m2
17:53 6.3 °C 4.9 °C 1037.2 hPa Calm     91% 0.0 mm 0 W/m2
17:58 6.2 °C 5 °C 1037.2 hPa Calm     92% 0.0 mm 0 W/m2
18:03 6.2 °C 5 °C 1037.2 hPa ENE 1.4 km/h 1.6 km/h 92% 0.0 mm 0 W/m2
18:08 6.1 °C 4.9 °C 1036.9 hPa Calm     92% 0.0 mm 0 W/m2
18:13 6.1 °C 4.9 °C 1037.2 hPa Calm     92% 0.0 mm 0 W/m2
18:18 6 °C 4.8 °C 1036.9 hPa Calm     92% 0.0 mm 0 W/m2
18:23 6 °C 4.8 °C 1036.9 hPa Calm     92% 0.0 mm 0 W/m2
18:28 6 °C 5 °C 1036.9 hPa Calm     93% 0.0 mm 0 W/m2
18:33 5.9 °C 4.7 °C 1036.9 hPa Calm     92% 0.0 mm 0 W/m2
18:38 5.8 °C 4.8 °C 1036.9 hPa Calm     93% 0.0 mm 0 W/m2
18:43 5.8 °C 4.8 °C 1036.9 hPa Calm     93% 0.0 mm 0 W/m2
18:48 5.8 °C 4.8 °C 1036.9 hPa Calm     93% 0.0 mm 0 W/m2
18:53 5.8 °C 4.8 °C 1036.9 hPa Calm     93% 0.0 mm 0 W/m2
18:58 5.7 °C 4.7 °C 1036.9 hPa Calm     93% 0.0 mm 0 W/m2
19:03 5.7 °C 4.7 °C 1036.9 hPa Calm     93% 0.0 mm 0 W/m2
19:08 5.7 °C 4.7 °C 1036.9 hPa Calm     93% 0.0 mm 0 W/m2
19:13 5.6 °C 4.6 °C 1036.9 hPa Calm     93% 0.0 mm 0 W/m2
19:18 5.6 °C 4.6 °C 1036.9 hPa Calm     93% 0.0 mm 0 W/m2
19:23 5.6 °C 4.7 °C 1036.9 hPa Calm     94% 0.0 mm 0 W/m2
19:28 5.5 °C 4.5 °C 1036.9 hPa Calm     93% 0.0 mm 0 W/m2
19:46 5.2 °C 4.3 °C 1037.2 hPa Calm     94% 0.0 mm 0 W/m2
19:51 5.2 °C 4.3 °C 1037.2 hPa Calm     94% 0.0 mm 0 W/m2
19:56 5.1 °C 4.2 °C 1037.2 hPa Calm     94% 0.0 mm 0 W/m2
20:01 5 °C 4.1 °C 1037.2 hPa Calm     94% 0.0 mm 0 W/m2
20:06 5.1 °C 4.2 °C 1037.2 hPa Calm   1.6 km/h 94% 0.0 mm 0 W/m2
20:11 5.1 °C 4.2 °C 1037.2 hPa Calm     94% 0.0 mm 0 W/m2
20:16 5.2 °C 4.5 °C 1037.2 hPa Calm   1.6 km/h 95% 0.0 mm 0 W/m2
20:21 5.4 °C 4.7 °C 1037.2 hPa Calm   1.6 km/h 95% 0.0 mm 0 W/m2
20:26 5.6 °C 4.9 °C 1037.2 hPa Calm     95% 0.0 mm 0 W/m2
20:32 5.6 °C 4.9 °C 1037.2 hPa Calm     95% 0.0 mm 0 W/m2
20:37 5.7 °C 5 °C 1037.2 hPa Calm   1.6 km/h 95% 0.0 mm 0 W/m2
20:42 5.8 °C 5.1 °C 1037.2 hPa Calm     95% 0.0 mm 0 W/m2
20:47 5.8 °C 5.1 °C 1037.2 hPa Calm   1.6 km/h 95% 0.0 mm 0 W/m2
20:52 5.9 °C 5.2 °C 1037.2 hPa Calm     95% 0.0 mm 0 W/m2
20:57 6 °C 5.3 °C 1037.2 hPa Calm     95% 0.0 mm 0 W/m2
21:02 6.1 °C 5.4 °C 1037.2 hPa Calm     95% 0.0 mm 0 W/m2
21:07 6.1 °C 5.4 °C 1037.2 hPa Calm     95% 0.0 mm 0 W/m2
21:12 6.2 °C 5.5 °C 1037.6 hPa Calm     95% 0.0 mm 0 W/m2
21:17 6.2 °C 5.5 °C 1037.6 hPa Calm     95% 0.0 mm 0 W/m2
21:22 6.3 °C 5.6 °C 1037.6 hPa Calm     95% 0.0 mm 0 W/m2
21:27 6.3 °C 5.6 °C 1037.6 hPa Calm     95% 0.0 mm 0 W/m2
21:32 6.4 °C 5.7 °C 1037.6 hPa Calm     95% 0.0 mm 0 W/m2
21:37 6.5 °C 5.8 °C 1037.6 hPa Calm     95% 0.0 mm 0 W/m2
21:42 6.7 °C 5.8 °C 1037.6 hPa East 1.4 km/h 3.2 km/h 94% 0.0 mm 0 W/m2
21:47 6.8 °C 5.9 °C 1037.6 hPa Calm     94% 0.0 mm 0 W/m2
21:52 6.9 °C 6 °C 1037.6 hPa Calm     94% 0.0 mm 0 W/m2
21:57 7.1 °C 6 °C 1037.6 hPa Calm   1.6 km/h 93% 0.0 mm 0 W/m2
22:18 7.1 °C 5.9 °C 1037.2 hPa East 1.4 km/h 1.6 km/h 92% 0.0 mm 0 W/m2
22:23 7.1 °C 5.9 °C 1037.2 hPa Calm     92% 0.0 mm 0 W/m2
22:28 7.1 °C 5.9 °C 1037.2 hPa East 1.4 km/h 1.6 km/h 92% 0.0 mm 0 W/m2
22:33 7.1 °C 5.9 °C 1037.2 hPa SE 1.4 km/h 3.2 km/h 92% 0.0 mm 0 W/m2
22:38 7.1 °C 5.9 °C 1037.2 hPa Calm     92% 0.0 mm 0 W/m2
22:43 7.1 °C 5.9 °C 1037.2 hPa Calm   4.8 km/h 92% 0.0 mm 0 W/m2
22:48 7.1 °C 5.9 °C 1037.6 hPa ESE 1.4 km/h 1.6 km/h 92% 0.0 mm 0 W/m2
22:53 7.1 °C 5.9 °C 1037.6 hPa SSE 1.4 km/h 4.8 km/h 92% 0.0 mm 0 W/m2
22:58 7.1 °C 5.9 °C 1037.6 hPa SE 1.4 km/h 1.6 km/h 92% 0.0 mm 0 W/m2
23:03 7.2 °C 6 °C 1037.2 hPa Calm   1.6 km/h 92% 0.0 mm 0 W/m2
23:08 7.2 °C 6 °C 1037.6 hPa Calm   1.6 km/h 92% 0.0 mm 0 W/m2
23:13 7.2 °C 6 °C 1037.6 hPa Calm   3.2 km/h 92% 0.0 mm 0 W/m2
23:18 7.2 °C 6 °C 1037.6 hPa Calm   3.2 km/h 92% 0.0 mm 0 W/m2
23:23 7.3 °C 6.1 °C 1037.6 hPa Calm   1.6 km/h 92% 0.0 mm 0 W/m2
23:28 7.4 °C 6.2 °C 1037.6 hPa SE 1.4 km/h 4.8 km/h 92% 0.0 mm 0 W/m2
23:33 7.4 °C 6.2 °C 1037.6 hPa Calm   3.2 km/h 92% 0.0 mm 0 W/m2
23:38 7.5 °C 6.3 °C 1037.6 hPa Calm   3.2 km/h 92% 0.0 mm 0 W/m2
23:43 7.6 °C 6.4 °C 1037.6 hPa ESE 3.2 km/h 4.8 km/h 92% 0.0 mm 0 W/m2
23:48 7.6 °C 6.4 °C 1037.6 hPa Calm   1.6 km/h 92% 0.0 mm 0 W/m2
23:53 7.6 °C 6.4 °C 1037.6 hPa Calm   3.2 km/h 92% 0.0 mm 0 W/m2
23:58 7.7 °C 6.5 °C 1037.6 hPa Calm   3.2 km/h 92% 0.0 mm 0 W/m2
Juneau County Weather
Compliments of Weather Underground - 4 mb